Time;durP1;ratioP1;P1;durP2;ratioP2;P2;SDS_P1;SDS_P2;PMS_P1;PMS_P2;Temp;Humidity;BMP_temperature;BMP_pressure;BME280_temperature;BME280_humidity;BME280_pressure;Samples;Min_cycle;Max_cycle;Signal;HPM_P1;HPM_P2
2023/12/31 00:02:17;;;;;;;2.72;1.00;;;;;;;7.25;85.64;99687.09;10441236;28;20179;-80
2023/12/31 00:07:20;;;;;;;1.88;0.70;;;;;;;7.20;86.05;99675.91;10439439;28;20087;-80
2023/12/31 00:12:25;;;;;;;2.42;0.88;;;;;;;7.18;86.61;99665.34;10472123;28;20051;-81
2023/12/31 00:17:27;;;;;;;2.08;1.13;;;;;;;7.30;85.78;99650.19;10439176;28;20075;-81
2023/12/31 00:22:30;;;;;;;1.67;0.93;;;;;;;7.28;85.88;99650.28;10434319;28;20075;-80
2023/12/31 00:27:35;;;;;;;4.72;1.40;;;;;;;7.34;85.50;99648.13;10440316;28;20133;-80
2023/12/31 00:32:38;;;;;;;3.42;1.25;;;;;;;7.35;85.38;99644.47;10428811;28;20162;-79
2023/12/31 00:37:42;;;;;;;1.85;0.85;;;;;;;7.35;85.69;99647.13;10415712;28;20099;-78
2023/12/31 00:42:46;;;;;;;3.13;1.30;;;;;;;7.40;85.46;99632.44;10437139;28;20049;-77
2023/12/31 00:47:49;;;;;;;4.30;1.33;;;;;;;7.37;85.73;99639.84;10440422;28;20140;-80
2023/12/31 00:52:52;;;;;;;4.43;1.30;;;;;;;7.44;85.72;99622.38;10447318;28;20052;-79
2023/12/31 00:57:57;;;;;;;2.72;1.08;;;;;;;7.40;86.25;99613.72;10418129;28;20048;-79
2023/12/31 01:03:00;;;;;;;4.90;1.27;;;;;;;7.38;86.90;99612.19;10436379;28;20048;-77
2023/12/31 01:08:04;;;;;;;2.30;1.15;;;;;;;7.47;86.52;99603.41;10439526;28;20681;-80
2023/12/31 01:13:08;;;;;;;3.47;1.17;;;;;;;7.38;87.13;99594.31;10414234;28;20045;-80
2023/12/31 01:18:11;;;;;;;2.38;1.05;;;;;;;7.41;86.64;99594.06;10443339;28;20083;-81
2023/12/31 01:23:14;;;;;;;6.97;1.17;;;;;;;7.33;87.24;99584.97;10436541;28;20628;-78
2023/12/31 01:28:18;;;;;;;3.30;1.10;;;;;;;7.21;87.67;99565.41;10443201;28;20049;-80
2023/12/31 01:33:21;;;;;;;2.13;1.30;;;;;;;7.13;88.22;99559.84;10452731;28;20545;-80
2023/12/31 01:38:25;;;;;;;3.03;1.42;;;;;;;7.02;89.20;99537.53;10452029;28;20052;-80
2023/12/31 01:43:30;;;;;;;2.80;1.38;;;;;;;6.66;91.03;99527.03;10427042;28;20048;-80
2023/12/31 01:48:35;;;;;;;3.10;1.63;;;;;;;6.52;91.64;99512.94;10437249;28;20049;-80
2023/12/31 01:53:39;;;;;;;3.17;1.75;;;;;;;6.25;93.69;99515.94;10427049;28;20051;-80
2023/12/31 01:58:44;;;;;;;3.33;1.88;;;;;;;6.49;92.25;99518.53;10443600;28;20661;-79
2023/12/31 02:03:47;;;;;;;5.45;1.77;;;;;;;6.47;92.29;99504.44;10430084;28;20041;-79
2023/12/31 02:08:50;;;;;;;7.15;2.65;;;;;;;6.34;93.28;99482.41;10430806;28;20045;-80
2023/12/31 02:13:55;;;;;;;8.32;2.45;;;;;;;6.17;95.32;99479.22;10431550;28;20040;-81
2023/12/31 02:18:58;;;;;;;3.13;1.73;;;;;;;6.11;95.83;99462.81;10430308;28;20048;-78
2023/12/31 02:24:01;;;;;;;4.28;1.95;;;;;;;6.04;97.00;99467.78;10470869;28;20049;-80
2023/12/31 02:29:06;;;;;;;5.25;2.20;;;;;;;6.04;97.24;99464.28;10455433;28;20057;-80
2023/12/31 02:34:11;;;;;;;4.47;2.25;;;;;;;6.07;97.35;99454.22;10442452;28;20052;-80
2023/12/31 02:39:14;;;;;;;6.10;2.33;;;;;;;6.03;98.25;99435.91;10428864;28;20068;-79
2023/12/31 02:44:19;;;;;;;4.05;2.15;;;;;;;5.90;99.62;99417.34;10455882;28;20087;-80
2023/12/31 02:49:22;;;;;;;7.25;2.95;;;;;;;6.07;98.43;99432.03;10450762;28;20052;-79
2023/12/31 02:54:25;;;;;;;6.57;2.70;;;;;;;6.12;98.37;99419.22;10442542;28;20057;-81
2023/12/31 02:59:30;;;;;;;5.68;2.70;;;;;;;6.06;98.74;99417.00;10442334;28;20071;-79
2023/12/31 03:04:33;;;;;;;5.03;2.50;;;;;;;6.09;98.55;99396.31;10467640;28;20045;-80
2023/12/31 03:09:36;;;;;;;4.75;2.78;;;;;;;6.08;98.75;99388.41;10444447;28;20188;-80
2023/12/31 03:14:40;;;;;;;3.88;2.50;;;;;;;6.11;98.22;99372.16;10419782;28;20049;-80
2023/12/31 03:19:44;;;;;;;7.25;2.45;;;;;;;6.10;98.26;99371.31;10424220;28;20207;-80
2023/12/31 03:24:47;;;;;;;3.45;2.50;;;;;;;6.06;98.71;99350.34;10469069;28;20044;-78
2023/12/31 03:29:51;;;;;;;4.43;2.42;;;;;;;6.02;98.67;99354.25;10468988;28;20038;-78
2023/12/31 03:34:54;;;;;;;6.55;3.30;;;;;;;5.95;98.82;99352.06;10483927;28;20104;-79
2023/12/31 03:39:57;;;;;;;5.10;2.75;;;;;;;5.93;99.38;99337.16;10465831;28;20048;-79
2023/12/31 03:45:02;;;;;;;4.45;3.10;;;;;;;5.92;99.12;99336.31;10463266;28;20037;-79
2023/12/31 03:50:06;;;;;;;7.10;3.05;;;;;;;5.90;99.52;99332.91;10471948;28;20089;-79
2023/12/31 03:55:09;;;;;;;8.30;3.20;;;;;;;5.88;99.77;99326.00;10482938;28;21029;-78
2023/12/31 04:00:14;;;;;;;5.72;2.95;;;;;;;5.85;100.00;99318.25;10482034;28;20048;-79
2023/12/31 04:05:18;;;;;;;5.93;2.80;;;;;;;5.87;100.00;99322.50;10475640;28;20317;-79
2023/12/31 04:10:21;;;;;;;3.20;2.53;;;;;;;6.11;100.00;99310.84;10459266;28;20044;-79
2023/12/31 04:15:25;;;;;;;4.95;2.72;;;;;;;6.45;97.53;99294.81;10465003;28;20059;-78
2023/12/31 04:20:28;;;;;;;7.35;2.42;;;;;;;6.48;97.07;99297.25;10483381;28;20044;-78
2023/12/31 04:25:31;;;;;;;5.82;2.47;;;;;;;6.58;95.94;99292.81;10487834;28;20047;-79
2023/12/31 04:30:37;;;;;;;3.03;2.53;;;;;;;6.67;93.92;99268.06;10473003;28;20048;-79
2023/12/31 04:35:40;;;;;;;5.10;2.80;;;;;;;6.47;94.61;99266.19;10465519;28;20140;-78
2023/12/31 04:40:52;;;;;;;;;;;;;;;6.37;96.59;99261.59;10483397;28;20052;-78
2023/12/31 04:45:57;;;;;;;3.53;2.83;;;;;;;6.61;95.36;99252.56;10454358;28;19924;-79
2023/12/31 04:51:00;;;;;;;4.05;2.97;;;;;;;6.73;94.04;99237.34;10473040;28;20166;-79
2023/12/31 04:56:03;;;;;;;4.88;3.42;;;;;;;6.75;93.39;99222.91;10487276;28;20068;-79
2023/12/31 05:01:10;;;;;;;5.93;3.50;;;;;;;6.90;92.37;99228.81;10470571;28;20059;-78
2023/12/31 05:06:15;;;;;;;5.53;3.60;;;;;;;6.78;92.64;99219.97;10494782;28;20036;-79
2023/12/31 05:11:18;;;;;;;5.28;3.33;;;;;;;7.04;90.86;99206.28;10483211;28;20048;-78
2023/12/31 05:16:24;;;;;;;3.80;3.33;;;;;;;7.13;90.25;99202.84;10466619;28;20039;-79
2023/12/31 05:21:27;;;;;;;5.65;3.60;;;;;;;7.18;89.63;99207.78;10449891;28;20060;-78
2023/12/31 05:26:30;;;;;;;5.78;3.38;;;;;;;7.21;89.47;99202.16;10449789;28;20072;-80
2023/12/31 05:31:36;;;;;;;5.28;3.13;;;;;;;7.37;88.55;99174.97;10445321;28;20048;-80
2023/12/31 05:36:40;;;;;;;7.50;3.92;;;;;;;7.45;88.25;99168.00;10429952;28;21255;-79
2023/12/31 05:41:43;;;;;;;6.45;3.50;;;;;;;7.31;88.56;99152.31;10430661;28;20091;-79
2023/12/31 05:46:47;;;;;;;4.70;3.00;;;;;;;7.44;87.96;99139.59;10418513;28;20052;-79
2023/12/31 05:51:50;;;;;;;4.03;2.88;;;;;;;7.35;88.37;99128.84;10444944;28;20067;-80
2023/12/31 05:56:53;;;;;;;4.03;2.65;;;;;;;7.28;88.47;99120.53;10439070;28;20049;-79
2023/12/31 06:02:01;;;;;;;4.28;2.90;;;;;;;7.39;87.87;99112.44;10435293;28;20055;-78
2023/12/31 06:07:04;;;;;;;4.15;3.05;;;;;;;7.32;87.87;99097.06;10448114;28;20088;-81
2023/12/31 06:12:07;;;;;;;3.72;3.03;;;;;;;7.53;86.77;99078.31;10447840;28;20076;-80
2023/12/31 06:17:12;;;;;;;5.50;2.55;;;;;;;7.40;87.56;99066.03;10438107;28;20061;-80
2023/12/31 06:22:16;;;;;;;3.60;1.98;;;;;;;7.47;86.75;99067.19;10452432;28;20055;-79
2023/12/31 06:27:19;;;;;;;4.75;2.88;;;;;;;7.50;86.57;99050.03;10446922;28;20135;-79
2023/12/31 06:32:23;;;;;;;2.47;2.15;;;;;;;7.44;86.09;99048.75;10439595;28;20841;-79
2023/12/31 06:37:27;;;;;;;8.20;2.53;;;;;;;7.64;85.09;99044.28;10434455;28;20130;-80
2023/12/31 06:42:30;;;;;;;5.85;2.17;;;;;;;7.61;84.71;99038.38;10443130;28;20053;-80
2023/12/31 06:47:34;;;;;;;2.55;1.80;;;;;;;7.48;85.01;99026.09;10446771;28;20064;-79
2023/12/31 06:52:37;;;;;;;4.93;1.80;;;;;;;7.53;84.85;99020.38;10450496;28;20079;-80
2023/12/31 06:57:40;;;;;;;2.05;1.50;;;;;;;7.67;83.75;99006.59;10447843;28;20127;-80
2023/12/31 07:02:46;;;;;;;2.55;1.80;;;;;;;7.72;83.42;99007.03;10439858;28;20052;-79
2023/12/31 07:07:50;;;;;;;4.38;1.80;;;;;;;7.73;83.00;99023.91;10427912;28;20094;-77
2023/12/31 07:12:53;;;;;;;4.22;1.70;;;;;;;7.86;81.29;99002.25;10448491;28;20037;-79
2023/12/31 07:17:57;;;;;;;2.75;1.58;;;;;;;7.97;80.17;99002.09;10476993;28;20048;-78
2023/12/31 07:23:00;;;;;;;2.42;2.00;;;;;;;7.97;80.08;98994.09;10457621;28;20087;-80
2023/12/31 07:28:05;;;;;;;1.92;1.55;;;;;;;8.05;79.19;98993.38;10406072;28;20056;-80
2023/12/31 07:33:09;;;;;;;2.95;1.80;;;;;;;8.02;79.00;98989.16;10445451;28;20057;-79
2023/12/31 07:38:13;;;;;;;1.60;1.17;;;;;;;8.03;78.69;98976.63;10437772;28;20057;-80
2023/12/31 07:43:16;;;;;;;3.10;1.65;;;;;;;8.00;78.99;98975.06;10446454;28;20500;-79
2023/12/31 07:48:20;;;;;;;2.55;1.60;;;;;;;8.19;78.70;98984.91;10436643;28;20549;-80
2023/12/31 07:53:23;;;;;;;3.00;1.70;;;;;;;8.04;79.08;98979.16;10445955;28;20051;-79
2023/12/31 07:58:27;;;;;;;3.58;1.83;;;;;;;7.99;79.36;98965.38;10421376;28;20045;-77
2023/12/31 08:03:31;;;;;;;3.30;1.85;;;;;;;8.01;79.05;98958.06;10423217;28;20084;-78
2023/12/31 08:08:34;;;;;;;4.60;2.15;;;;;;;7.96;79.45;98954.97;10429524;28;20498;-78
2023/12/31 08:13:37;;;;;;;4.00;1.80;;;;;;;8.00;78.32;98944.81;10431132;28;20041;-78
2023/12/31 08:18:43;;;;;;;2.03;1.52;;;;;;;7.89;78.91;98924.44;10441685;28;20723;-78
2023/12/31 08:23:46;;;;;;;1.58;1.48;;;;;;;8.02;78.20;98924.16;10425316;28;20060;-78
2023/12/31 08:28:50;;;;;;;1.95;1.70;;;;;;;8.01;77.78;98914.41;10426827;28;20049;-79
2023/12/31 08:33:54;;;;;;;3.40;2.20;;;;;;;8.04;77.82;98923.00;10425127;28;20048;-77
2023/12/31 08:38:57;;;;;;;2.80;1.88;;;;;;;8.11;77.61;98907.22;10437900;28;21914;-79
2023/12/31 08:44:00;;;;;;;1.60;1.50;;;;;;;8.09;77.57;98906.50;10435239;28;20052;-78
2023/12/31 08:49:05;;;;;;;3.03;1.58;;;;;;;8.02;77.65;98894.72;10420894;28;20081;-77
2023/12/31 08:54:09;;;;;;;2.97;1.85;;;;;;;8.03;78.12;98885.72;10438580;28;20056;-78
2023/12/31 08:59:12;;;;;;;5.30;1.90;;;;;;;8.07;77.68;98882.59;10434833;28;20144;-78
2023/12/31 09:04:16;;;;;;;2.70;1.40;;;;;;;8.09;76.92;98887.78;10459462;28;20045;-79
2023/12/31 09:09:19;;;;;;;2.33;1.50;;;;;;;8.12;77.53;98876.84;10436608;28;20040;-78
2023/12/31 09:14:22;;;;;;;1.70;1.35;;;;;;;8.31;76.18;98871.41;10416391;28;20049;-79
2023/12/31 09:19:26;;;;;;;2.17;1.45;;;;;;;8.25;76.28;98874.66;10423823;28;20052;-79
2023/12/31 09:24:29;;;;;;;1.75;1.45;;;;;;;8.24;76.42;98885.50;10418747;28;20061;-79
2023/12/31 09:29:32;;;;;;;2.35;1.65;;;;;;;8.34;75.95;98886.34;10410697;28;20079;-78
2023/12/31 09:34:36;;;;;;;2.42;1.70;;;;;;;8.42;75.54;98882.91;10433174;28;20047;-79
2023/12/31 09:39:39;;;;;;;2.88;1.50;;;;;;;8.35;75.33;98883.50;10446964;28;20122;-78
2023/12/31 09:44:43;;;;;;;3.08;1.60;;;;;;;8.38;75.63;98867.16;10448291;28;20052;-79
2023/12/31 09:49:48;;;;;;;3.05;1.63;;;;;;;8.54;74.95;98850.50;10435284;28;20332;-79
2023/12/31 09:54:54;;;;;;;2.15;1.48;;;;;;;8.51;74.66;98853.47;10436064;28;20049;-78
2023/12/31 09:59:57;;;;;;;3.58;1.70;;;;;;;8.71;74.07;98843.50;10437811;28;20528;-79
2023/12/31 10:05:02;;;;;;;2.78;1.85;;;;;;;8.49;74.99;98839.38;10423489;28;20048;-80
2023/12/31 10:10:07;;;;;;;3.25;1.92;;;;;;;8.52;74.82;98820.34;10421525;28;20079;-78
2023/12/31 10:15:10;;;;;;;2.95;1.77;;;;;;;8.69;74.24;98839.28;10439654;28;20052;-79
2023/12/31 10:20:14;;;;;;;1.70;1.60;;;;;;;8.60;75.06;98820.44;10425636;28;20052;-81
2023/12/31 10:25:19;;;;;;;2.47;1.80;;;;;;;8.41;75.94;98820.53;10438777;28;20575;-80
2023/12/31 10:30:23;;;;;;;2.83;1.98;;;;;;;8.66;75.62;98820.84;10422704;28;20055;-80
2023/12/31 10:35:27;;;;;;;2.20;2.00;;;;;;;8.88;74.73;98809.69;10431906;28;20055;-78
2023/12/31 10:40:30;;;;;;;3.55;2.25;;;;;;;8.49;75.88;98803.75;10445214;28;20049;-81
2023/12/31 10:45:34;;;;;;;3.70;2.20;;;;;;;8.80;75.27;98804.25;10444939;28;20063;-80
2023/12/31 10:50:41;;;;;;;3.08;2.38;;;;;;;8.81;74.97;98782.72;10437149;28;20063;-80
2023/12/31 10:55:45;;;;;;;2.53;2.25;;;;;;;8.85;75.39;98767.16;10437402;28;20049;-80
2023/12/31 11:00:48;;;;;;;2.72;2.30;;;;;;;8.95;75.07;98756.41;10442820;28;20057;-78
2023/12/31 11:05:53;;;;;;;3.90;2.50;;;;;;;9.14;74.42;98737.47;10434228;28;20081;-79
2023/12/31 11:10:57;;;;;;;4.25;2.55;;;;;;;9.11;75.87;98737.78;10447240;28;20112;-79
2023/12/31 11:16:05;;;;;;;3.25;2.45;;;;;;;8.94;78.13;98719.88;10468781;28;20075;-78
2023/12/31 11:21:28;;;;;;;3.90;2.53;;;;;;;8.84;79.99;98711.94;10411370;28;20053;-80
2023/12/31 11:26:31;;;;;;;3.55;2.63;;;;;;;8.76;80.34;98698.50;10448599;28;20104;-78
2023/12/31 11:31:34;;;;;;;5.50;3.72;;;;;;;9.10;78.96;98689.72;10446275;28;20049;-80
2023/12/31 11:36:38;;;;;;;3.35;2.85;;;;;;;8.94;78.81;98688.63;10430597;28;20063;-78
2023/12/31 11:41:45;;;;;;;4.85;3.03;;;;;;;9.03;78.11;98687.69;10449695;28;20444;-81
2023/12/31 11:46:48;;;;;;;3.03;2.47;;;;;;;9.34;76.87;98681.84;10458576;28;20359;-78
2023/12/31 11:51:55;;;;;;;4.10;2.67;;;;;;;9.40;75.67;98680.38;10462433;28;20052;-78
2023/12/31 11:56:59;;;;;;;3.10;2.55;;;;;;;9.46;74.44;98669.03;10449212;28;20056;-81
2023/12/31 12:02:03;;;;;;;4.93;2.80;;;;;;;9.46;74.81;98666.34;10444611;28;20048;-79
2023/12/31 12:07:08;;;;;;;3.35;2.53;;;;;;;9.63;74.01;98652.03;10433367;28;20144;-79
2023/12/31 12:12:11;;;;;;;2.15;1.95;;;;;;;9.43;74.79;98648.72;10444621;28;20055;-81
2023/12/31 12:17:15;;;;;;;2.85;2.58;;;;;;;9.54;73.81;98650.31;10448991;28;20128;-81
2023/12/31 12:22:20;;;;;;;4.88;2.97;;;;;;;10.08;72.29;98633.97;10428965;28;20052;-80
2023/12/31 12:27:23;;;;;;;3.45;2.28;;;;;;;10.03;71.57;98637.13;10448613;28;20468;-79
2023/12/31 12:32:26;;;;;;;3.50;2.78;;;;;;;9.86;73.56;98636.25;10420917;28;20063;-79
2023/12/31 12:37:32;;;;;;;3.85;3.03;;;;;;;8.92;83.36;98630.84;10433141;28;20040;-80
2023/12/31 12:42:36;;;;;;;4.70;2.35;;;;;;;8.66;85.32;98626.28;10441808;28;20104;-79
2023/12/31 12:47:41;;;;;;;2.60;2.35;;;;;;;8.76;84.36;98615.50;10447861;28;20041;-79
2023/12/31 12:52:46;;;;;;;7.28;2.65;;;;;;;8.91;84.03;98615.78;10462184;28;20044;-80
2023/12/31 12:57:49;;;;;;;5.10;2.88;;;;;;;9.10;82.92;98604.84;10446912;28;20044;-79
2023/12/31 13:02:52;;;;;;;6.65;2.47;;;;;;;9.13;82.32;98611.72;10441082;28;20041;-81
2023/12/31 13:07:57;;;;;;;3.75;2.17;;;;;;;9.06;81.73;98606.19;10427585;28;20049;-79
2023/12/31 13:13:00;;;;;;;3.22;2.72;;;;;;;9.15;80.74;98607.06;10433532;28;21194;-79
2023/12/31 13:18:04;;;;;;;3.88;2.15;;;;;;;9.04;80.56;98619.72;10443819;28;20053;-79
2023/12/31 13:23:08;;;;;;;2.47;1.92;;;;;;;8.66;85.90;98609.41;10442309;28;20049;-79
2023/12/31 13:28:12;;;;;;;2.30;1.98;;;;;;;8.55;87.08;98624.69;10437947;28;20177;-79
2023/12/31 13:33:15;;;;;;;2.45;2.05;;;;;;;8.47;85.09;98629.13;10447291;28;20044;-81
2023/12/31 13:38:23;;;;;;;2.30;1.88;;;;;;;8.68;82.44;98626.16;10427529;28;21147;-81
2023/12/31 13:43:26;;;;;;;3.65;1.80;;;;;;;8.71;80.69;98637.38;10443221;28;20147;-80
2023/12/31 13:48:29;;;;;;;1.90;1.45;;;;;;;9.15;78.10;98650.75;10451704;28;21310;-81
2023/12/31 13:53:34;;;;;;;3.70;1.25;;;;;;;8.79;78.11;98666.06;10439615;28;20053;-79
2023/12/31 13:58:37;;;;;;;3.55;1.20;;;;;;;8.76;76.33;98677.06;10450907;28;20130;-80
2023/12/31 14:03:40;;;;;;;1.15;1.00;;;;;;;9.00;74.02;98663.88;10450642;28;20053;-79
2023/12/31 14:08:45;;;;;;;1.75;1.10;;;;;;;8.79;74.31;98655.34;10433601;28;20041;-81
2023/12/31 14:13:48;;;;;;;0.98;0.95;;;;;;;9.19;72.91;98670.06;10452697;28;20105;-80
2023/12/31 14:18:51;;;;;;;1.92;1.45;;;;;;;9.04;76.19;98664.41;10445651;28;20133;-81
2023/12/31 14:23:56;;;;;;;3.25;1.90;;;;;;;8.50;86.54;98688.56;10410923;28;20052;-79
2023/12/31 14:28:59;;;;;;;4.60;1.55;;;;;;;7.63;100.00;98694.38;10441423;28;20063;-83
2023/12/31 14:34:02;;;;;;;1.83;1.65;;;;;;;7.01;100.00;98702.81;10420248;28;20074;-83
2023/12/31 14:39:15;;;;;;;1.27;0.80;;;;;;;7.09;98.05;98719.94;10434494;28;21200;-82
2023/12/31 14:44:19;;;;;;;0.32;0.32;;;;;;;7.30;92.72;98707.25;10448336;28;20048;-81
2023/12/31 14:49:22;;;;;;;2.20;0.80;;;;;;;7.56;91.14;98719.97;10432280;28;20049;-81
2023/12/31 14:54:26;;;;;;;0.80;0.43;;;;;;;7.97;87.90;98726.69;10424879;28;20041;-81
2023/12/31 14:59:29;;;;;;;0.57;0.50;;;;;;;7.62;85.59;98728.25;10448648;28;20044;-81
2023/12/31 15:04:32;;;;;;;1.27;0.35;;;;;;;7.84;84.08;98728.88;10435129;28;20159;-80
2023/12/31 15:09:37;;;;;;;1.08;0.35;;;;;;;7.75;82.43;98740.44;10434869;28;20051;-81
2023/12/31 15:14:40;;;;;;;1.00;0.40;;;;;;;7.62;87.15;98735.41;10441081;28;20051;-81
2023/12/31 15:19:44;;;;;;;0.45;0.45;;;;;;;7.01;91.80;98774.88;10440809;28;20140;-81
2023/12/31 15:24:49;;;;;;;0.65;0.32;;;;;;;6.74;98.57;98780.03;10433016;28;20512;-81
2023/12/31 15:29:52;;;;;;;1.38;0.70;;;;;;;6.70;100.00;98781.31;10402697;28;20059;-78
2023/12/31 15:34:55;;;;;;;4.50;0.77;;;;;;;6.00;100.00;98815.91;10427321;28;20040;-79
2023/12/31 15:39:59;;;;;;;1.20;0.63;;;;;;;5.18;100.00;98823.78;10428467;28;20047;-80
2023/12/31 15:45:02;;;;;;;2.15;0.75;;;;;;;5.27;100.00;98831.03;10441099;28;20114;-80
2023/12/31 15:50:06;;;;;;;1.42;0.40;;;;;;;5.12;100.00;98857.09;10420774;28;20052;-80
2023/12/31 15:55:12;;;;;;;3.90;0.93;;;;;;;5.07;100.00;98824.69;10410420;28;20055;-80
2023/12/31 16:00:16;;;;;;;3.58;0.85;;;;;;;4.72;100.00;98835.56;10415571;28;20424;-81
2023/12/31 16:05:19;;;;;;;6.93;1.30;;;;;;;5.40;100.00;98822.84;10434352;28;20044;-80
2023/12/31 16:10:24;;;;;;;9.45;1.13;;;;;;;5.26;100.00;98813.34;10419994;28;20496;-81
2023/12/31 16:15:27;;;;;;;5.13;0.77;;;;;;;5.19;100.00;98799.72;10431662;28;20534;-80
2023/12/31 16:20:31;;;;;;;5.22;0.90;;;;;;;5.12;100.00;98813.66;10431259;28;20048;-81
2023/12/31 16:25:36;;;;;;;7.05;1.25;;;;;;;5.21;100.00;98807.56;10422454;28;20045;-82
2023/12/31 16:30:39;;;;;;;2.70;1.08;;;;;;;5.57;100.00;98808.97;10416256;28;20076;-81
2023/12/31 16:35:42;;;;;;;4.97;1.00;;;;;;;5.41;100.00;98821.88;10445395;28;20045;-81
2023/12/31 16:40:46;;;;;;;4.28;1.00;;;;;;;5.62;100.00;98824.53;10422602;28;20041;-82
2023/12/31 16:45:50;;;;;;;7.07;1.75;;;;;;;5.58;100.00;98823.94;10426951;28;20044;-83
2023/12/31 16:50:53;;;;;;;3.15;2.20;;;;;;;5.85;100.00;98830.56;10433337;28;20048;-81
2023/12/31 16:55:58;;;;;;;2.78;1.70;;;;;;;5.75;100.00;98830.50;10423582;28;20044;-82
2023/12/31 17:01:01;;;;;;;6.30;1.70;;;;;;;5.79;100.00;98831.94;10425062;28;21135;-82
2023/12/31 17:06:04;;;;;;;3.55;1.80;;;;;;;5.66;100.00;98847.28;10435139;28;20045;-81
2023/12/31 17:11:09;;;;;;;6.53;2.40;;;;;;;6.02;100.00;98847.75;10414786;28;20049;-81
2023/12/31 17:16:12;;;;;;;8.70;2.90;;;;;;;6.06;100.00;98846.50;10420438;28;21614;-81
2023/12/31 17:21:15;;;;;;;6.70;3.42;;;;;;;6.10;100.00;98848.78;10432553;28;20061;-79
2023/12/31 17:26:20;;;;;;;7.60;2.75;;;;;;;6.02;100.00;98843.28;10421953;28;20048;-81
2023/12/31 17:31:23;;;;;;;8.18;3.95;;;;;;;6.02;100.00;98839.78;10431497;28;20037;-81
2023/12/31 17:36:27;;;;;;;9.07;5.22;;;;;;;6.01;100.00;98838.09;10400558;28;20041;-81
2023/12/31 17:41:31;;;;;;;2.85;1.80;;;;;;;5.99;100.00;98840.88;10423882;28;20037;-81
2023/12/31 17:46:35;;;;;;;10.80;1.90;;;;;;;5.96;100.00;98849.13;10426945;28;20048;-83
2023/12/31 17:51:38;;;;;;;2.95;1.48;;;;;;;6.06;100.00;98835.84;10426700;28;21497;-81
2023/12/31 17:56:42;;;;;;;5.00;2.17;;;;;;;6.10;100.00;98842.63;10460455;28;20051;-83
2023/12/31 18:01:45;;;;;;;10.57;2.72;;;;;;;6.11;100.00;98845.13;10440523;28;20419;-81
2023/12/31 18:06:48;;;;;;;9.55;2.17;;;;;;;6.05;100.00;98845.66;10429816;28;20060;-82
2023/12/31 18:11:53;;;;;;;7.10;2.00;;;;;;;5.95;99.63;98848.31;10434858;28;20063;-82
2023/12/31 18:16:56;;;;;;;3.58;1.77;;;;;;;6.25;97.86;98849.25;10438505;28;20044;-82
2023/12/31 18:21:59;;;;;;;7.65;2.20;;;;;;;6.23;96.97;98843.22;10423319;28;20686;-80
2023/12/31 18:27:06;;;;;;;6.82;2.10;;;;;;;6.09;93.13;98860.44;10429221;28;20771;-81
2023/12/31 18:32:09;;;;;;;9.70;1.67;;;;;;;6.27;91.60;98868.63;10441571;28;20057;-81
2023/12/31 18:37:12;;;;;;;10.30;2.00;;;;;;;6.15;94.10;98864.38;10438887;28;20075;-80
2023/12/31 18:42:17;;;;;;;10.68;2.03;;;;;;;6.14;94.94;98860.88;10427795;28;20049;-80
2023/12/31 18:47:20;;;;;;;8.38;2.28;;;;;;;6.33;92.54;98869.91;10436971;28;20063;-82
2023/12/31 18:52:23;;;;;;;11.43;2.47;;;;;;;6.37;91.58;98856.19;10446483;28;20049;-80
2023/12/31 18:57:27;;;;;;;9.90;2.58;;;;;;;6.45;90.29;98855.53;10445577;28;20048;-81
2023/12/31 19:02:30;;;;;;;6.35;1.90;;;;;;;6.48;88.56;98857.09;10435952;28;20044;-80
2023/12/31 19:07:33;;;;;;;9.82;2.05;;;;;;;6.46;89.30;98853.69;10418952;28;20053;-80
2023/12/31 19:12:37;;;;;;;6.40;1.50;;;;;;;6.61;87.38;98858.53;10407856;28;20436;-81
2023/12/31 19:17:40;;;;;;;6.20;1.83;;;;;;;6.84;86.00;98867.13;10418162;28;20067;-80
2023/12/31 19:22:44;;;;;;;10.73;2.33;;;;;;;6.92;84.21;98868.31;10418253;28;20091;-81
2023/12/31 19:27:49;;;;;;;8.98;2.33;;;;;;;7.01;83.74;98873.66;10434740;28;21035;-82
2023/12/31 19:32:52;;;;;;;13.02;1.80;;;;;;;7.09;82.65;98870.31;10420620;28;20045;-80
2023/12/31 19:37:55;;;;;;;8.82;1.60;;;;;;;7.03;82.51;98870.88;10444875;28;20072;-80
2023/12/31 19:43:00;;;;;;;9.57;1.73;;;;;;;7.06;81.82;98873.25;10427498;28;20051;-80
2023/12/31 19:48:23;;;;;;;6.40;1.27;;;;;;;7.11;80.40;98871.00;10418377;28;20521;-80
2023/12/31 19:53:26;;;;;;;10.82;1.80;;;;;;;7.00;79.97;98871.97;10442663;28;20126;-83
2023/12/31 19:58:30;;;;;;;10.65;1.80;;;;;;;7.13;78.97;98878.88;10437348;28;20048;-81
2023/12/31 20:03:34;;;;;;;11.75;1.75;;;;;;;7.35;78.20;98867.06;10432307;28;20049;-82
2023/12/31 20:08:37;;;;;;;11.82;1.60;;;;;;;7.22;76.72;98873.56;10435390;28;20091;-80
2023/12/31 20:13:41;;;;;;;9.00;1.90;;;;;;;7.39;75.84;98900.56;10450253;28;20040;-83
2023/12/31 20:18:44;;;;;;;10.77;1.88;;;;;;;7.45;75.74;98879.44;10413864;28;20469;-80
2023/12/31 20:23:49;;;;;;;6.97;1.58;;;;;;;7.39;75.15;98885.34;10433366;28;20055;-81
2023/12/31 20:28:53;;;;;;;22.35;2.13;;;;;;;7.46;74.56;98881.16;10447814;28;20083;-80
2023/12/31 20:33:56;;;;;;;8.52;1.30;;;;;;;7.29;74.37;98895.19;10436168;28;21058;-79
2023/12/31 20:38:59;;;;;;;9.25;1.42;;;;;;;7.50;74.16;98892.41;10443401;28;20673;-82
2023/12/31 20:44:04;;;;;;;3.72;0.90;;;;;;;7.42;73.93;98884.25;10441013;28;20044;-78
2023/12/31 20:49:08;;;;;;;7.25;1.25;;;;;;;7.16;75.78;98922.19;10434090;28;20136;-79
2023/12/31 20:54:12;;;;;;;9.82;1.92;;;;;;;7.33;74.96;98890.44;10438108;28;20154;-79
2023/12/31 20:59:16;;;;;;;8.15;2.92;;;;;;;7.49;74.78;98888.06;10448994;28;20048;-79
2023/12/31 21:04:19;;;;;;;12.35;1.50;;;;;;;7.43;75.79;98892.13;10427468;28;20053;-82
2023/12/31 21:09:22;;;;;;;5.47;0.90;;;;;;;7.49;74.64;98898.72;10404545;28;20041;-80
2023/12/31 21:14:26;;;;;;;7.63;1.50;;;;;;;7.35;75.79;98899.13;10441591;28;20051;-82
2023/12/31 21:19:30;;;;;;;6.10;1.65;;;;;;;7.42;74.99;98900.28;10429566;28;20129;-81
2023/12/31 21:24:33;;;;;;;6.72;1.63;;;;;;;7.30;75.67;98894.22;10435862;28;20049;-82
2023/12/31 21:29:38;;;;;;;6.15;1.63;;;;;;;7.53;75.07;98897.44;10433327;28;20051;-81
2023/12/31 21:34:41;;;;;;;6.63;1.50;;;;;;;7.46;75.78;98897.19;10418419;28;21185;-81
2023/12/31 21:39:45;;;;;;;3.95;1.20;;;;;;;7.06;76.70;98894.63;10441913;28;20068;-82
2023/12/31 21:44:49;;;;;;;5.95;1.83;;;;;;;7.32;76.17;98894.06;10430152;28;20128;-80
2023/12/31 21:49:53;;;;;;;7.25;1.50;;;;;;;7.11;76.66;98889.72;10432248;28;20535;-82
2023/12/31 21:54:57;;;;;;;11.52;1.70;;;;;;;6.96;77.97;98886.56;10441236;28;20411;-82
2023/12/31 22:00:05;;;;;;;9.77;1.52;;;;;;;6.84;77.89;98901.00;10437334;28;20056;-81
2023/12/31 22:05:08;;;;;;;6.13;1.52;;;;;;;6.93;78.04;98902.88;10436847;28;20529;-81
2023/12/31 22:10:13;;;;;;;5.47;1.63;;;;;;;7.16;81.26;98905.28;10408570;28;20134;-83
2023/12/31 22:15:17;;;;;;;10.25;2.53;;;;;;;6.82;87.65;98910.97;10428631;28;20041;-84
2023/12/31 22:20:20;;;;;;;11.07;1.40;;;;;;;6.53;86.68;98908.22;10448770;28;20052;-80
2023/12/31 22:25:23;;;;;;;10.43;1.65;;;;;;;6.85;84.76;98911.53;10464656;28;20496;-82
2023/12/31 22:30:28;;;;;;;10.18;2.28;;;;;;;6.72;84.68;98910.06;10432384;28;20060;-81
2023/12/31 22:35:31;;;;;;;5.25;1.60;;;;;;;6.91;83.35;98912.00;10438951;28;20048;-82
2023/12/31 22:40:35;;;;;;;5.90;1.63;;;;;;;6.95;82.26;98906.25;10413391;28;20076;-82
2023/12/31 22:45:40;;;;;;;8.60;1.80;;;;;;;7.14;80.82;98909.94;10431773;28;20097;-83
2023/12/31 22:50:43;;;;;;;7.35;1.52;;;;;;;7.06;80.14;98911.47;10431269;28;20063;-81
2023/12/31 22:55:47;;;;;;;6.93;1.30;;;;;;;7.06;80.14;98915.97;10404126;28;20532;-81
2023/12/31 23:00:51;;;;;;;3.03;1.67;;;;;;;6.91;80.30;98917.31;10429419;28;20080;-80
2023/12/31 23:05:54;;;;;;;31.77;16.33;;;;;;;7.30;78.70;98920.94;10439464;28;20044;-81
2023/12/31 23:10:57;;;;;;;18.80;8.07;;;;;;;7.17;78.90;98902.50;10406925;28;20047;-82
2023/12/31 23:16:02;;;;;;;20.23;11.02;;;;;;;7.18;79.44;98904.16;10419924;28;20049;-82
2023/12/31 23:21:07;;;;;;;22.80;11.32;;;;;;;7.18;78.63;98898.84;10427120;28;20048;-83
2023/12/31 23:26:10;;;;;;;27.33;14.70;;;;;;;7.01;80.01;98894.19;10424014;28;20132;-81
2023/12/31 23:31:14;;;;;;;14.35;9.02;;;;;;;6.97;79.31;98885.59;10432510;28;20596;-82
2023/12/31 23:36:17;;;;;;;16.20;9.68;;;;;;;7.17;78.71;98877.63;10432348;28;20114;-81
2023/12/31 23:41:21;;;;;;;17.90;8.23;;;;;;;6.86;80.14;98899.03;10415462;28;20056;-81
2023/12/31 23:46:30;;;;;;;14.57;6.97;;;;;;;7.09;79.41;98896.16;10431747;28;20040;-80